Time;durP1;ratioP1;P1;durP2;ratioP2;P2;SDS_P1;SDS_P2;PMS_P1;PMS_P2;Temp;Humidity;BMP_temperature;BMP_pressure;BME280_temperature;BME280_humidity;BME280_pressure;Samples;Min_cycle;Max_cycle;Signal;HPM_P1;HPM_P2
2023/04/22 04:00:35;;;;;;;14.87;5.70;;;;;;;;;;6125735;23;20161;-92
2023/04/22 04:03:47;;;;;;;7.47;4.67;;;;;;;;;;6143472;23;20213;-92
2023/04/22 04:06:55;;;;;;;17.47;5.63;;;;;;;;;;6141946;23;20165;-91
2023/04/22 04:10:00;;;;;;;14.93;5.10;;;;;;;;;;6125521;23;20525;-94
2023/04/22 04:13:05;;;;;;;17.77;5.67;;;;;;;;;;6141529;23;20201;-93
2023/04/22 04:17:00;;;;;;;11.57;4.60;;;;;;;;;;6145299;23;20514;-93
2023/04/22 04:20:10;;;;;;;14.43;5.50;;;;;;;;;;6143061;23;20202;-93
2023/04/22 04:23:18;;;;;;;17.40;4.83;;;;;;;;;;6142980;23;20173;-92
2023/04/22 04:26:26;;;;;;;9.73;4.40;;;;;;;;;;6144486;23;20233;-93
2023/04/22 04:29:36;;;;;;;10.77;4.67;;;;;;;;;;6145202;23;20224;-95
2023/04/22 04:32:50;;;;;;;17.83;5.87;;;;;;;;;;6143351;23;20225;-91
2023/04/22 04:35:58;;;;;;;12.07;4.47;;;;;;;;;;6125366;23;20621;-94
2023/04/22 04:39:11;;;;;;;11.87;5.00;;;;;;;;;;6143271;23;20169;-94
2023/04/22 04:42:17;;;;;;;11.73;5.13;;;;;;;;;;6124041;23;20246;-92
2023/04/22 04:45:31;;;;;;;16.50;4.33;;;;;;;;;;6141004;23;20642;-93
2023/04/22 04:48:37;;;;;;;14.50;5.03;;;;;;;;;;6140761;23;20149;-93
2023/04/22 04:51:47;;;;;;;11.77;5.07;;;;;;;;;;6123288;23;20305;-91
2023/04/22 04:54:53;;;;;;;14.47;5.33;;;;;;;;;;6140141;23;20716;-91
2023/04/22 04:57:58;;;;;;;11.23;5.63;;;;;;;;;;6123292;23;20189;-91
2023/04/22 05:01:03;;;;;;;15.70;5.63;;;;;;;;;;6141494;23;20237;-92
2023/04/22 05:04:08;;;;;;;31.47;6.43;;;;;;;;;;6140298;23;20238;-92
2023/04/22 05:07:18;;;;;;;14.57;5.67;;;;;;;;;;6139401;23;20617;-93
2023/04/22 05:10:25;;;;;;;14.97;4.73;;;;;;;;;;6141301;23;20197;-92
2023/04/22 05:13:30;;;;;;;12.33;5.00;;;;;;;;;;6140428;23;20235;-92
2023/04/22 05:16:35;;;;;;;15.77;5.33;;;;;;;;;;6142287;23;20185;-93
2023/04/22 05:19:42;;;;;;;10.37;5.03;;;;;;;;;;6143563;23;20229;-92
2023/04/22 05:22:48;;;;;;;11.90;5.13;;;;;;;;;;6141941;23;20165;-92
2023/04/22 05:25:55;;;;;;;16.20;5.00;;;;;;;;;;6143358;23;20161;-92
2023/04/22 05:29:02;;;;;;;13.40;4.97;;;;;;;;;;6141935;23;20170;-91
2023/04/22 05:32:07;;;;;;;11.50;4.77;;;;;;;;;;6141685;23;20165;-92
2023/04/22 05:35:16;;;;;;;11.30;4.67;;;;;;;;;;6140970;23;20173;-91
2023/04/22 05:38:23;;;;;;;17.53;5.40;;;;;;;;;;6140114;23;20290;-93
2023/04/22 05:41:28;;;;;;;17.00;5.30;;;;;;;;;;6142890;23;20169;-93
2023/04/22 05:44:35;;;;;;;10.47;4.50;;;;;;;;;;6141707;23;20157;-92
2023/04/22 05:47:42;;;;;;;10.63;4.28;;;;;;;;;;6142096;23;20648;-93
2023/04/22 05:50:48;;;;;;;16.80;4.47;;;;;;;;;;6143490;23;20201;-93
2023/04/22 05:53:55;;;;;;;9.52;4.47;;;;;;;;;;6143315;23;20173;-95
2023/04/22 05:57:01;;;;;;;9.73;5.07;;;;;;;;;;6140367;23;20616;-92
2023/04/22 06:00:08;;;;;;;11.32;4.75;;;;;;;;;;6142404;23;20153;-92
2023/04/22 06:03:19;;;;;;;11.30;5.00;;;;;;;;;;6142502;23;20632;-92
2023/04/22 06:06:25;;;;;;;12.02;4.43;;;;;;;;;;6142552;23;20153;-93
2023/04/22 06:09:31;;;;;;;12.10;4.40;;;;;;;;;;6142699;23;20173;-94
2023/04/22 06:12:36;;;;;;;11.95;4.18;;;;;;;;;;6141666;23;20168;-94
2023/04/22 06:16:03;;;;;;;17.23;4.32;;;;;;;;;;6144132;23;20665;-93
2023/04/22 06:19:09;;;;;;;10.65;4.55;;;;;;;;;;6158657;23;20194;-92
2023/04/22 06:26:06;;;;;;;10.30;4.10;;;;;;;;;;6140885;23;20162;-92
2023/04/22 06:29:13;;;;;;;10.15;4.18;;;;;;;;;;6143197;23;20173;-93
2023/04/22 06:32:19;;;;;;;12.32;4.15;;;;;;;;;;6143940;23;20170;-93
2023/04/22 06:35:25;;;;;;;11.90;5.03;;;;;;;;;;6148234;23;20263;-93
2023/04/22 06:38:30;;;;;;;28.98;4.90;;;;;;;;;;6145436;23;20641;-94
2023/04/22 06:41:56;;;;;;;9.45;4.20;;;;;;;;;;6143959;23;20178;-92
2023/04/22 06:45:29;;;;;;;8.68;4.13;;;;;;;;;;6146453;23;20632;-93
2023/04/22 06:48:51;;;;;;;9.45;3.90;;;;;;;;;;6146303;23;20217;-94
2023/04/22 06:52:14;;;;;;;11.18;3.90;;;;;;;;;;6145078;23;20207;-93
2023/04/22 06:55:20;;;;;;;10.90;4.13;;;;;;;;;;6143701;23;20498;-91
2023/04/22 06:58:28;;;;;;;8.32;3.90;;;;;;;;;;6144693;23;20196;-93
2023/04/22 07:01:34;;;;;;;7.57;4.30;;;;;;;;;;6144937;23;20169;-94
2023/04/22 07:04:39;;;;;;;12.55;3.53;;;;;;;;;;6165044;23;20153;-94
2023/04/22 07:07:49;;;;;;;12.43;3.90;;;;;;;;;;6149511;23;20230;-92
2023/04/22 07:10:58;;;;;;;19.92;4.22;;;;;;;;;;6162106;23;20528;-92
2023/04/22 07:14:21;;;;;;;12.57;4.05;;;;;;;;;;6143578;23;20174;-94
2023/04/22 07:17:27;;;;;;;17.52;4.00;;;;;;;;;;6142867;23;20169;-93
2023/04/22 07:20:33;;;;;;;11.48;3.97;;;;;;;;;;6143839;23;20178;-92
